createdAt,value
2023-01-13T00:01:08.907Z,7.70
2023-01-13T00:03:38.494Z,7.80
2023-01-13T00:06:09.173Z,7.90
2023-01-13T00:08:37.851Z,7.90
2023-01-13T00:11:06.663Z,7.90
2023-01-13T00:13:35.574Z,7.90
2023-01-13T00:16:07.121Z,7.90
2023-01-13T00:18:37.041Z,7.80
2023-01-13T00:21:06.634Z,7.70
2023-01-13T00:23:37.519Z,7.80
2023-01-13T00:26:07.956Z,7.70
2023-01-13T00:28:37.390Z,7.80
2023-01-13T00:31:07.169Z,7.70
2023-01-13T00:33:36.381Z,7.70
2023-01-13T00:36:07.416Z,7.70
2023-01-13T00:38:38.913Z,7.70
2023-01-13T00:41:09.291Z,7.80
2023-01-13T00:43:37.787Z,7.70
2023-01-13T00:46:08.472Z,7.70
2023-01-13T00:48:37.864Z,7.80
2023-01-13T00:51:09.938Z,7.80
2023-01-13T00:53:41.567Z,7.80
2023-01-13T00:56:14.327Z,7.80
2023-01-13T00:58:44.327Z,7.80
2023-01-13T01:01:15.519Z,7.80
2023-01-13T01:03:44.508Z,7.90
2023-01-13T01:06:16.782Z,7.90
2023-01-13T01:08:47.270Z,7.80
2023-01-13T01:11:17.690Z,7.80
2023-01-13T01:13:47.336Z,7.70
2023-01-13T01:16:18.345Z,7.70
2023-01-13T01:18:49.329Z,7.70
2023-01-13T01:21:18.905Z,7.70
2023-01-13T01:23:48.899Z,7.60
2023-01-13T01:26:19.802Z,7.60
2023-01-13T01:28:49.578Z,7.60
2023-01-13T01:31:20.419Z,7.50
2023-01-13T01:33:49.911Z,7.60
2023-01-13T01:36:21.040Z,7.60
2023-01-13T01:38:51.399Z,7.60
2023-01-13T01:41:22.510Z,7.60
2023-01-13T01:44:02.968Z,7.60
2023-01-13T01:46:34.701Z,7.60
2023-01-13T01:49:17.163Z,7.60
2023-01-13T01:51:50.117Z,7.60
2023-01-13T01:54:25.570Z,7.70
2023-01-13T01:56:54.836Z,7.60
2023-01-13T01:59:23.743Z,7.60
2023-01-13T02:01:52.502Z,7.60
2023-01-13T02:04:27.332Z,7.50
2023-01-13T02:06:57.809Z,7.50
2023-01-13T02:09:29.147Z,7.40
2023-01-13T02:12:15.214Z,7.50
2023-01-13T02:14:45.771Z,7.40
2023-01-13T02:17:30.058Z,7.40
2023-01-13T02:20:29.868Z,7.40
2023-01-13T02:23:33.276Z,7.40
2023-01-13T02:26:23.209Z,7.30
2023-01-13T02:29:38.458Z,7.40
2023-01-13T02:32:17.531Z,7.40
2023-01-13T02:34:53.018Z,7.40
2023-01-13T02:37:28.692Z,7.40
2023-01-13T02:40:01.317Z,7.40
2023-01-13T02:42:51.752Z,7.40
2023-01-13T02:45:27.021Z,7.40
2023-01-13T02:48:00.266Z,7.40
2023-01-13T02:50:34.083Z,7.40
2023-01-13T02:53:08.281Z,7.40
2023-01-13T02:55:41.380Z,7.40
2023-01-13T02:58:13.305Z,7.60
2023-01-13T03:00:42.582Z,7.60
2023-01-13T03:03:12.757Z,7.60
2023-01-13T03:05:43.222Z,7.70
2023-01-13T03:08:24.834Z,7.60
2023-01-13T03:11:05.677Z,7.80
2023-01-13T03:14:01.785Z,7.70
2023-01-13T03:16:41.359Z,7.70
2023-01-13T03:19:22.151Z,7.80
2023-01-13T03:21:56.981Z,7.80
2023-01-13T03:24:31.448Z,7.90
2023-01-13T03:27:05.431Z,7.90
2023-01-13T03:29:38.764Z,7.90
2023-01-13T03:32:12.616Z,7.80
2023-01-13T03:34:48.164Z,7.80
2023-01-13T03:37:20.552Z,7.80
2023-01-13T03:39:52.999Z,7.70
2023-01-13T03:42:24.765Z,7.80
2023-01-13T03:44:57.769Z,7.70
2023-01-13T03:47:33.079Z,7.80
2023-01-13T03:50:06.992Z,7.70
2023-01-13T03:52:39.258Z,7.70
2023-01-13T03:55:11.659Z,7.70
2023-01-13T03:57:45.796Z,7.70
2023-01-13T04:00:15.585Z,7.70
2023-01-13T04:02:50.939Z,7.70
2023-01-13T04:05:21.672Z,7.70
2023-01-13T04:07:57.577Z,7.70
2023-01-13T04:10:30.277Z,7.60
2023-01-13T04:13:02.934Z,7.70
2023-01-13T04:15:35.125Z,7.70
2023-01-13T04:18:11.243Z,7.70
2023-01-13T04:20:42.462Z,7.70
2023-01-13T04:23:13.530Z,7.70
2023-01-13T04:25:42.863Z,7.70
2023-01-13T04:28:11.665Z,7.70
2023-01-13T04:30:40.775Z,7.80
2023-01-13T04:33:09.950Z,7.80
2023-01-13T04:35:40.478Z,7.80
2023-01-13T04:38:11.149Z,7.90
2023-01-13T04:40:40.545Z,7.90
2023-01-13T04:43:09.226Z,7.90
2023-01-13T04:45:38.043Z,7.90
2023-01-13T04:48:07.206Z,7.90
2023-01-13T04:50:35.879Z,7.90
2023-01-13T04:53:06.063Z,7.90
2023-01-13T04:55:35.286Z,7.90
2023-01-13T04:58:05.617Z,7.90
2023-01-13T05:00:34.667Z,8.00
2023-01-13T05:03:03.405Z,7.90
2023-01-13T05:05:32.288Z,8.00
2023-01-13T05:08:01.139Z,8.10
2023-01-13T05:10:30.951Z,8.10
2023-01-13T05:13:16.462Z,8.10
2023-01-13T05:16:17.185Z,8.10
2023-01-13T05:18:45.831Z,8.10
2023-01-13T05:21:28.338Z,8.10
2023-01-13T05:24:14.455Z,8.10
2023-01-13T05:26:44.765Z,8.10
2023-01-13T05:29:13.642Z,8.20
2023-01-13T05:31:42.563Z,8.20
2023-01-13T05:34:11.016Z,8.20
2023-01-13T05:36:39.456Z,8.20
2023-01-13T05:39:08.279Z,8.20
2023-01-13T05:41:54.337Z,8.20
2023-01-13T05:44:24.182Z,8.20
2023-01-13T05:46:52.874Z,8.20
2023-01-13T05:49:21.230Z,8.10
2023-01-13T05:51:49.644Z,8.10
2023-01-13T05:54:18.117Z,8.10
2023-01-13T05:56:46.567Z,8.10
2023-01-13T05:59:15.193Z,8.20
2023-01-13T06:01:45.259Z,8.10
2023-01-13T06:04:13.716Z,8.10
2023-01-13T06:06:43.447Z,8.10
2023-01-13T06:09:12.034Z,8.10
2023-01-13T06:11:40.552Z,8.00
2023-01-13T06:14:09.127Z,8.00
2023-01-13T06:16:38.700Z,8.00
2023-01-13T06:19:12.987Z,8.10
2023-01-13T06:21:41.985Z,8.10
2023-01-13T06:24:10.722Z,8.10
2023-01-13T06:26:40.922Z,8.10
2023-01-13T06:29:10.187Z,8.00
2023-01-13T06:31:41.014Z,8.00
2023-01-13T06:34:15.040Z,8.00
2023-01-13T06:36:47.285Z,8.00
2023-01-13T06:39:20.100Z,7.90
2023-01-13T06:42:08.644Z,7.90
2023-01-13T06:44:37.514Z,7.90
2023-01-13T06:47:06.906Z,7.90
2023-01-13T06:49:36.807Z,8.00
2023-01-13T06:52:05.492Z,8.00
2023-01-13T06:54:34.585Z,7.80
2023-01-13T06:57:03.167Z,7.80
2023-01-13T06:59:34.235Z,7.70
2023-01-13T07:02:02.837Z,7.70
2023-01-13T07:04:31.411Z,7.70
2023-01-13T07:07:01.734Z,7.70
2023-01-13T07:09:31.392Z,7.80
2023-01-13T07:12:00.107Z,7.80
2023-01-13T07:14:45.728Z,7.70
2023-01-13T07:17:14.381Z,7.70
2023-01-13T07:19:42.741Z,7.70
2023-01-13T07:22:15.181Z,7.80
2023-01-13T07:24:43.576Z,7.90
2023-01-13T07:27:12.076Z,8.00
2023-01-13T07:29:40.692Z,8.00
2023-01-13T07:32:09.408Z,8.00
2023-01-13T07:34:38.466Z,7.90
2023-01-13T07:37:07.255Z,7.90
2023-01-13T07:39:37.602Z,7.90
2023-01-13T07:42:34.840Z,7.90
2023-01-13T07:45:04.002Z,7.90
2023-01-13T07:47:32.489Z,8.10
2023-01-13T07:50:01.334Z,8.20
2023-01-13T07:52:29.782Z,8.20
2023-01-13T07:54:59.660Z,8.20
2023-01-13T07:57:27.888Z,8.30
2023-01-13T07:59:56.511Z,8.30
2023-01-13T08:02:25.161Z,8.30
2023-01-13T08:04:53.823Z,8.40
2023-01-13T08:07:22.334Z,8.40
2023-01-13T08:09:51.076Z,8.50
2023-01-13T08:12:38.314Z,8.50
2023-01-13T08:15:09.993Z,8.50
2023-01-13T08:17:38.919Z,8.50
2023-01-13T08:20:08.400Z,8.70
2023-01-13T08:22:36.764Z,8.80
2023-01-13T08:25:05.923Z,8.90
2023-01-13T08:27:35.998Z,9.00
2023-01-13T08:30:05.732Z,9.10
2023-01-13T08:32:34.241Z,9.00
2023-01-13T08:35:02.603Z,9.10
2023-01-13T08:37:31.220Z,9.00
2023-01-13T08:39:59.901Z,9.00
2023-01-13T08:42:28.716Z,8.90
2023-01-13T08:44:58.980Z,9.00
2023-01-13T08:47:28.473Z,8.90
2023-01-13T08:49:57.026Z,8.90
2023-01-13T08:52:25.939Z,8.90
2023-01-13T08:54:54.798Z,8.90
2023-01-13T08:57:23.576Z,8.90
2023-01-13T08:59:52.245Z,8.90
2023-01-13T09:02:24.164Z,8.90
2023-01-13T09:04:53.249Z,9.00
2023-01-13T09:07:22.047Z,9.00
2023-01-13T09:09:51.221Z,9.00
2023-01-13T09:12:37.277Z,9.10
2023-01-13T09:15:06.477Z,9.10
2023-01-13T09:17:36.963Z,9.10
2023-01-13T09:20:06.354Z,9.10
2023-01-13T09:22:36.768Z,9.00
2023-01-13T09:25:06.414Z,9.00
2023-01-13T09:27:35.198Z,9.00
2023-01-13T09:30:03.594Z,9.10
2023-01-13T09:32:32.682Z,9.10
2023-01-13T09:35:01.620Z,9.20
2023-01-13T09:37:32.452Z,9.30
2023-01-13T09:40:00.857Z,9.30
2023-01-13T09:42:56.205Z,9.40
2023-01-13T09:45:28.646Z,9.50
2023-01-13T09:48:03.454Z,9.60
2023-01-13T09:54:33.078Z,9.60
2023-01-13T09:57:12.680Z,9.60
2023-01-13T09:59:41.677Z,9.60
2023-01-13T10:02:32.656Z,9.50
2023-01-13T10:05:06.552Z,9.50
2023-01-13T10:07:39.844Z,9.60
2023-01-13T10:10:14.939Z,9.80
2023-01-13T10:13:15.657Z,9.80
2023-01-13T10:15:49.593Z,9.80
2023-01-13T10:18:36.881Z,9.80
2023-01-13T10:21:21.228Z,9.80
2023-01-13T10:24:01.282Z,9.70
2023-01-13T10:26:53.934Z,9.70
2023-01-13T10:29:25.841Z,9.70
2023-01-13T10:32:06.483Z,9.70
2023-01-13T10:34:46.961Z,9.60
2023-01-13T10:40:35.955Z,9.10
2023-01-13T10:43:07.936Z,8.80
2023-01-13T10:45:36.424Z,8.70
2023-01-13T10:48:21.252Z,8.50
2023-01-13T10:50:50.238Z,8.30
2023-01-13T10:54:02.404Z,8.10
2023-01-13T10:56:41.287Z,8.10
2023-01-13T10:59:36.034Z,8.00
2023-01-13T11:02:26.860Z,8.00
2023-01-13T11:05:10.692Z,8.00
2023-01-13T11:07:41.345Z,8.00
2023-01-13T11:10:23.347Z,8.00
2023-01-13T11:13:05.350Z,8.00
2023-01-13T11:15:47.584Z,8.00
2023-01-13T11:18:22.670Z,7.90
2023-01-13T11:21:28.249Z,7.90
2023-01-13T11:24:06.524Z,7.80
2023-01-13T11:26:52.136Z,8.00
2023-01-13T11:29:30.458Z,8.20
2023-01-13T11:32:07.953Z,8.20
2023-01-13T11:34:55.266Z,8.10
2023-01-13T11:37:27.748Z,8.20
2023-01-13T11:40:05.670Z,8.20
2023-01-13T11:43:02.396Z,8.30
2023-01-13T11:45:47.078Z,8.20
2023-01-13T11:48:22.294Z,8.30
2023-01-13T11:51:00.962Z,8.20
2023-01-13T11:53:57.285Z,8.10
2023-01-13T11:56:46.771Z,8.10
2023-01-13T11:59:48.632Z,8.20
2023-01-13T12:03:02.863Z,8.20
2023-01-13T12:05:40.880Z,8.20
2023-01-13T12:08:19.440Z,8.20
2023-01-13T12:11:02.438Z,8.10
2023-01-13T12:13:41.000Z,8.20
2023-01-13T12:16:46.034Z,8.20
2023-01-13T12:19:34.003Z,8.10
2023-01-13T12:22:19.332Z,8.10
2023-01-13T12:25:06.252Z,8.10
2023-01-13T12:27:56.117Z,8.20
2023-01-13T12:30:39.959Z,8.30
2023-01-13T12:33:40.580Z,8.30
2023-01-13T12:36:22.365Z,8.20
2023-01-13T12:38:56.854Z,8.30
2023-01-13T12:41:36.837Z,8.30
2023-01-13T12:44:30.543Z,8.30
2023-01-13T12:47:05.939Z,8.30
2023-01-13T12:49:48.535Z,8.30
2023-01-13T12:52:44.858Z,8.30
2023-01-13T12:55:31.037Z,8.40
2023-01-13T12:58:04.364Z,8.40
2023-01-13T13:00:38.126Z,8.50
2023-01-13T13:03:34.869Z,8.70
2023-01-13T13:06:15.016Z,9.60
2023-01-13T13:09:03.158Z,11.50
2023-01-13T13:12:08.084Z,12.30
2023-01-13T13:15:03.728Z,11.10
2023-01-13T13:17:44.908Z,10.20
2023-01-13T13:20:53.973Z,9.50
2023-01-13T13:24:11.455Z,9.10
2023-01-13T13:26:45.631Z,8.70
2023-01-13T13:29:43.035Z,8.60
2023-01-13T13:32:41.184Z,8.50
2023-01-13T13:35:32.168Z,8.50
2023-01-13T13:38:36.407Z,9.10
2023-01-13T13:41:31.890Z,11.30
2023-01-13T13:44:23.850Z,12.90
2023-01-13T13:46:58.832Z,14.30
2023-01-13T13:49:38.891Z,13.70
2023-01-13T13:52:14.846Z,13.30
2023-01-13T13:54:47.906Z,13.10
2023-01-13T13:57:21.377Z,13.40
2023-01-13T13:59:54.835Z,14.20
2023-01-13T14:02:29.065Z,13.60
2023-01-13T14:05:16.611Z,13.40
2023-01-13T14:07:45.881Z,14.00
2023-01-13T14:10:20.551Z,13.90
2023-01-13T14:12:50.378Z,13.80
2023-01-13T14:15:32.460Z,13.20
2023-01-13T14:18:03.328Z,14.00
2023-01-13T14:20:34.410Z,13.90
2023-01-13T14:23:05.337Z,13.60
2023-01-13T14:25:37.031Z,13.70
2023-01-13T14:28:18.325Z,12.90
2023-01-13T14:30:47.188Z,11.80
2023-01-13T14:33:18.272Z,10.60
2023-01-13T14:36:13.032Z,10.10
2023-01-13T14:38:42.489Z,9.50
2023-01-13T14:41:23.466Z,9.20
2023-01-13T14:43:56.991Z,9.00
2023-01-13T14:46:25.987Z,8.60
2023-01-13T14:49:01.484Z,8.50
2023-01-13T14:51:31.341Z,8.20
2023-01-13T14:53:59.675Z,8.10
2023-01-13T14:56:43.215Z,7.90
2023-01-13T14:59:42.350Z,7.70
2023-01-13T15:02:41.836Z,7.60
2023-01-13T15:05:34.531Z,7.60
2023-01-13T15:08:18.464Z,7.70
2023-01-13T15:10:48.942Z,7.40
2023-01-13T15:13:45.165Z,7.50
2023-01-13T15:16:21.514Z,7.30
2023-01-13T15:18:50.589Z,7.20
2023-01-13T15:21:19.597Z,7.00
2023-01-13T15:23:48.182Z,6.90
2023-01-13T15:26:20.196Z,6.80
2023-01-13T15:28:49.612Z,6.80
2023-01-13T15:31:20.137Z,6.80
2023-01-13T15:33:49.377Z,6.80
2023-01-13T15:36:22.637Z,6.80
2023-01-13T15:38:51.428Z,6.80
2023-01-13T15:41:40.792Z,6.80
2023-01-13T15:44:29.940Z,6.90
2023-01-13T15:47:02.656Z,7.00
2023-01-13T15:49:36.159Z,7.10
2023-01-13T15:52:07.462Z,7.00
2023-01-13T15:54:35.874Z,7.20
2023-01-13T15:57:04.739Z,7.30
2023-01-13T15:59:33.888Z,7.50
2023-01-13T16:02:03.693Z,7.50
2023-01-13T16:04:32.161Z,7.40
2023-01-13T16:07:00.863Z,7.50
2023-01-13T16:09:29.326Z,7.50
2023-01-13T16:11:57.767Z,7.40
2023-01-13T16:14:26.224Z,7.40
2023-01-13T16:16:54.644Z,7.50
2023-01-13T16:19:24.482Z,7.40
2023-01-13T16:21:53.049Z,7.40
2023-01-13T16:24:21.362Z,7.30
2023-01-13T16:26:51.943Z,7.40
2023-01-13T16:29:20.364Z,7.30
2023-01-13T16:31:48.908Z,7.20
2023-01-13T16:34:18.017Z,7.10
2023-01-13T16:36:47.814Z,7.00
2023-01-13T16:39:22.606Z,6.80
2023-01-13T16:41:51.664Z,6.70
2023-01-13T16:44:20.088Z,6.50
2023-01-13T16:46:48.627Z,6.40
2023-01-13T16:49:18.489Z,6.30
2023-01-13T16:51:48.304Z,6.20
2023-01-13T16:54:16.704Z,6.00
2023-01-13T16:56:45.229Z,5.70
2023-01-13T16:59:15.217Z,5.70
2023-01-13T17:01:45.688Z,5.50
2023-01-13T17:04:17.768Z,5.50
2023-01-13T17:06:53.405Z,5.50
2023-01-13T17:09:23.495Z,5.50
2023-01-13T17:11:52.378Z,5.50
2023-01-13T17:14:23.213Z,5.40
2023-01-13T17:16:53.552Z,5.50
2023-01-13T17:19:24.478Z,5.90
2023-01-13T17:21:54.515Z,6.00
2023-01-13T17:24:25.475Z,6.00
2023-01-13T17:26:53.853Z,6.20
2023-01-13T17:29:25.622Z,6.20
2023-01-13T17:31:54.615Z,6.30
2023-01-13T17:34:23.355Z,6.30
2023-01-13T17:36:51.794Z,6.40
2023-01-13T17:39:24.275Z,6.30
2023-01-13T17:41:53.461Z,6.00
2023-01-13T17:44:22.883Z,5.90
2023-01-13T17:46:51.554Z,5.70
2023-01-13T17:49:21.823Z,5.60
2023-01-13T17:51:51.415Z,5.60
2023-01-13T17:54:21.675Z,5.40
2023-01-13T17:56:50.458Z,5.20
2023-01-13T17:59:20.413Z,5.10
2023-01-13T18:01:48.971Z,5.10
2023-01-13T18:04:19.043Z,5.20
2023-01-13T18:06:48.369Z,5.20
2023-01-13T18:09:17.836Z,5.30
2023-01-13T18:11:47.727Z,5.40
2023-01-13T18:14:16.360Z,5.40
2023-01-13T18:16:44.815Z,5.80
2023-01-13T18:19:30.468Z,5.80
2023-01-13T18:22:21.890Z,5.90
2023-01-13T18:25:07.974Z,6.10
2023-01-13T18:27:41.101Z,6.30
2023-01-13T18:30:10.766Z,6.10
2023-01-13T18:32:39.452Z,6.00
2023-01-13T18:35:10.864Z,5.90
2023-01-13T18:37:42.064Z,5.80
2023-01-13T18:40:12.791Z,5.80
2023-01-13T18:42:55.091Z,6.00
2023-01-13T18:45:26.340Z,6.20
2023-01-13T18:47:56.507Z,6.30
2023-01-13T18:50:25.851Z,6.20
2023-01-13T18:52:54.791Z,6.40
2023-01-13T18:55:23.494Z,6.50
2023-01-13T18:57:53.826Z,6.60
2023-01-13T19:00:24.927Z,6.50
2023-01-13T19:05:35.859Z,6.60
2023-01-13T19:08:04.810Z,6.60
2023-01-13T19:10:33.272Z,6.60
2023-01-13T19:13:03.154Z,6.60
2023-01-13T19:15:31.663Z,6.60
2023-01-13T19:18:00.342Z,6.60
2023-01-13T19:20:28.764Z,6.70
2023-01-13T19:22:57.236Z,6.70
2023-01-13T19:25:25.760Z,6.60
2023-01-13T19:27:54.338Z,6.50
2023-01-13T19:30:24.415Z,6.40
2023-01-13T19:32:52.839Z,6.40
2023-01-13T19:35:21.588Z,6.30
2023-01-13T19:37:50.225Z,6.40
2023-01-13T19:40:19.237Z,6.40
2023-01-13T19:43:05.357Z,6.40
2023-01-13T19:45:36.276Z,6.40
2023-01-13T19:48:05.804Z,6.40
2023-01-13T19:50:38.589Z,6.30
2023-01-13T19:53:07.559Z,6.40
2023-01-13T19:55:36.179Z,6.30
2023-01-13T19:58:05.811Z,6.30
2023-01-13T20:00:35.663Z,6.30
2023-01-13T20:03:08.035Z,6.30
2023-01-13T20:05:36.761Z,6.40
2023-01-13T20:08:05.366Z,6.50
2023-01-13T20:10:33.852Z,6.50
2023-01-13T20:13:02.656Z,6.50
2023-01-13T20:15:31.803Z,6.50
2023-01-13T20:18:01.567Z,6.70
2023-01-13T20:20:30.453Z,6.70
2023-01-13T20:22:59.446Z,6.70
2023-01-13T20:25:28.727Z,6.70
2023-01-13T20:27:58.485Z,6.80
2023-01-13T20:30:26.863Z,6.80
2023-01-13T20:32:55.373Z,6.90
2023-01-13T20:35:29.531Z,6.90
2023-01-13T20:37:58.233Z,6.90
2023-01-13T20:40:26.979Z,6.90
2023-01-13T20:42:54.705Z,7.00
2023-01-13T20:45:23.371Z,7.00
2023-01-13T20:47:51.784Z,7.00
2023-01-13T20:50:20.731Z,7.00
2023-01-13T20:52:52.517Z,7.10
2023-01-13T20:55:20.930Z,7.00
2023-01-13T20:57:50.306Z,7.10
2023-01-13T21:00:19.872Z,7.00
2023-01-13T21:02:48.342Z,7.10
2023-01-13T21:05:16.874Z,7.10
2023-01-13T21:07:45.686Z,7.00
2023-01-13T21:10:15.794Z,7.00
2023-01-13T21:13:01.952Z,7.00
2023-01-13T21:15:30.361Z,7.00
2023-01-13T21:18:16.108Z,6.90
2023-01-13T21:20:44.550Z,6.90
2023-01-13T21:23:12.981Z,6.90
2023-01-13T21:25:43.262Z,6.90
2023-01-13T21:28:13.488Z,6.90
2023-01-13T21:30:41.957Z,6.90
2023-01-13T21:33:14.421Z,6.90
2023-01-13T21:35:42.859Z,6.80
2023-01-13T21:38:12.305Z,6.70
2023-01-13T21:40:42.165Z,6.70
2023-01-13T21:43:30.398Z,6.80
2023-01-13T21:46:16.278Z,6.90
2023-01-13T21:48:45.085Z,6.90
2023-01-13T21:51:13.448Z,6.80
2023-01-13T21:53:41.995Z,6.80
2023-01-13T21:56:11.781Z,6.80
2023-01-13T21:58:40.080Z,6.70
2023-01-13T22:01:09.835Z,6.70
2023-01-13T22:03:58.746Z,6.70
2023-01-13T22:06:28.144Z,6.70
2023-01-13T22:09:00.095Z,6.70
2023-01-13T22:11:51.477Z,6.80
2023-01-13T22:14:19.909Z,6.80
2023-01-13T22:16:50.071Z,6.90
2023-01-13T22:19:19.578Z,6.90
2023-01-13T22:21:47.997Z,7.00
2023-01-13T22:24:16.642Z,7.00
2023-01-13T22:26:46.460Z,7.00
2023-01-13T22:29:14.640Z,7.00
2023-01-13T22:31:43.002Z,7.00
2023-01-13T22:34:14.454Z,7.00
2023-01-13T22:36:42.953Z,7.00
2023-01-13T22:39:12.104Z,7.10
2023-01-13T22:41:40.487Z,7.10
2023-01-13T22:44:10.300Z,7.10
2023-01-13T22:46:38.527Z,7.10
2023-01-13T22:49:07.016Z,7.10
2023-01-13T22:51:35.437Z,7.00
2023-01-13T22:54:03.864Z,6.90
2023-01-13T22:56:32.749Z,6.80
2023-01-13T22:59:02.381Z,6.80
2023-01-13T23:01:34.145Z,6.70
2023-01-13T23:04:02.833Z,6.70
2023-01-13T23:06:32.907Z,6.80
2023-01-13T23:09:14.508Z,6.90
2023-01-13T23:11:43.309Z,6.80
2023-01-13T23:14:16.442Z,6.90
2023-01-13T23:16:50.140Z,6.90
2023-01-13T23:19:19.100Z,6.80
2023-01-13T23:21:57.440Z,6.80
2023-01-13T23:24:33.964Z,6.90
2023-01-13T23:27:02.448Z,6.90
2023-01-13T23:29:33.957Z,6.90
2023-01-13T23:32:05.740Z,6.80
2023-01-13T23:34:34.734Z,6.80
2023-01-13T23:37:03.251Z,6.70
2023-01-13T23:39:32.376Z,6.70
2023-01-13T23:42:09.251Z,6.70
2023-01-13T23:44:39.812Z,6.80
2023-01-13T23:50:16.336Z,6.70
2023-01-13T23:52:44.815Z,6.70
2023-01-13T23:55:13.305Z,6.80
2023-01-13T23:57:42.562Z,6.70
